Aeroporto :
LOGIN :

Iscrizione | Disclaimer

   EN    FR    IT 

 










Sommario :    VFR   VFR Marginale   IFR   IFR Intensivo   IFR Molto Intensivo
Visibilità : 
Base nubi : 
>= 8 km
>= 3000ft
5 / 8 km
1000 / 3000 ft
1500m / 5 km
500 / 1000 ft
800 / 1500m
200 / 500 ft
< 800m
< 200 ft
Simboli :   Temporali  Nebbia  Neve Forte  Precipitazioni Forti  Vento > 20 kt
SIGMETs :   Varie  Temporali  Ghiacco  Turbolenza  Onda orograficha  Ceneri Vulcaniche







- Altitudine del aeroporto : 755 ft
- Codice IATA : KSC


LZKZ - Kosice

ULTIMO METAR :
  • 160830Z VRB01KT CAVOK 04/01 Q1031 NOSIG

METARs OBSOLETI :
  • 160811Z VRB01KT CAVOK 04/01 Q1031
  • 160800Z VRB02KT CAVOK 02/00 Q1031 NOSIG
  • 160730Z 36003KT CAVOK 01/M01 Q1031 NOSIG
  • 160700Z 35003KT CAVOK 00/M01 Q1031 NOSIG
  • 160630Z 00000KT CAVOK M01/M02 Q1031 NOSIG
  • 160600Z VRB01KT CAVOK M02/M04 Q1031 NOSIG

TAF TAF LZKZ
Valido dal 16 a 06 ore il 17 a 06 ore UTC


160500Z 1606/1706 VRB02KT CAVOK
PROB40
TEMPO 1606/1608 2300 BR SCT009
TEMPO 1612/1617 20006KT
BECMG 1619/1621 2800 BR SCT014
TEMPO 1700/1706 0500 FZFG BKN001
Nessun NOTAM noto per questo aeroporto.



MetMap, La meteo Aeronautica in un colpo d'occhio ! - Copyright ORBIFLY Dicembre 2007 - Disclaimer

ORBIFLY MET'MAP TEAM :

Programmazione e sviluppo : Alexandra Zaïnal
Concezione e sviluppo : Baudouin d'Aumeries
Co-Programmazione e sviluppo : Marc-Olivier Méhu
Supporto tecnico e logistico : Manuel Goepfert
Aiuto per la traduzione : Arnaldo La Scala

Contatto : metmap@orbifly.com




FONTI E CREDITI :

   NOAA